createdAt,value
2019-01-11T00:01:14.387Z,35.30
2019-01-11T00:03:47.363Z,35.50
2019-01-11T00:06:20.321Z,35.30
2019-01-11T00:08:53.132Z,34.40
2019-01-11T00:11:26.041Z,34.60
2019-01-11T00:13:59.077Z,34.90
2019-01-11T00:16:31.866Z,34.80
2019-01-11T00:19:07.188Z,34.90
2019-01-11T00:21:39.484Z,35.00
2019-01-11T00:24:12.958Z,35.20
2019-01-11T00:26:48.301Z,35.30
2019-01-11T00:29:20.677Z,34.80
2019-01-11T00:31:53.371Z,34.40
2019-01-11T00:34:26.650Z,34.60
2019-01-11T00:36:59.326Z,34.70
2019-01-11T00:39:32.412Z,34.90
2019-01-11T00:42:05.841Z,34.90
2019-01-11T00:44:39.415Z,34.80
2019-01-11T00:47:12.818Z,34.80
2019-01-11T00:49:46.401Z,34.90
2019-01-11T00:52:19.809Z,35.10
2019-01-11T00:54:53.630Z,34.90
2019-01-11T00:57:26.819Z,34.80
2019-01-11T01:00:00.681Z,34.90
2019-01-11T01:02:34.239Z,35.00
2019-01-11T01:05:09.063Z,35.20
2019-01-11T01:07:42.830Z,35.50
2019-01-11T01:10:16.462Z,35.80
2019-01-11T01:12:51.002Z,36.00
2019-01-11T01:15:24.453Z,36.40
2019-01-11T01:17:58.186Z,36.70
2019-01-11T01:20:32.082Z,37.00
2019-01-11T01:23:05.466Z,37.30
2019-01-11T01:25:38.154Z,37.80
2019-01-11T01:28:11.730Z,37.80
2019-01-11T01:30:44.764Z,37.80
2019-01-11T01:33:17.646Z,38.10
2019-01-11T01:35:51.826Z,38.50
2019-01-11T01:38:24.634Z,39.10
2019-01-11T01:40:57.602Z,39.50
2019-01-11T01:43:30.410Z,40.20
2019-01-11T01:46:03.793Z,40.60
2019-01-11T01:48:36.569Z,40.90
2019-01-11T01:51:10.229Z,41.00
2019-01-11T01:53:43.381Z,40.90
2019-01-11T01:56:16.840Z,40.20
2019-01-11T01:58:52.665Z,39.10
2019-01-11T02:01:24.579Z,38.10
2019-01-11T02:03:57.259Z,37.30
2019-01-11T02:06:31.464Z,36.60
2019-01-11T02:09:05.383Z,35.90
2019-01-11T02:11:39.580Z,35.40
2019-01-11T02:14:13.065Z,34.80
2019-01-11T02:16:46.386Z,34.40
2019-01-11T02:19:19.987Z,34.00
2019-01-11T02:21:53.797Z,33.70
2019-01-11T02:24:28.012Z,33.40
2019-01-11T02:27:00.808Z,33.20
2019-01-11T02:29:33.805Z,33.00
2019-01-11T02:32:07.453Z,32.70
2019-01-11T02:34:40.422Z,32.60
2019-01-11T02:37:13.837Z,32.30
2019-01-11T02:39:47.122Z,32.10
2019-01-11T02:42:19.947Z,32.00
2019-01-11T02:44:52.925Z,31.80
2019-01-11T02:47:26.207Z,31.70
2019-01-11T02:49:59.268Z,31.60
2019-01-11T02:52:32.329Z,31.40
2019-01-11T02:55:05.318Z,31.20
2019-01-11T02:57:38.270Z,31.20
2019-01-11T03:00:21.392Z,31.20
2019-01-11T03:02:54.483Z,31.10
2019-01-11T03:05:27.334Z,31.00
2019-01-11T03:08:00.462Z,31.00
2019-01-11T03:10:33.390Z,31.00
2019-01-11T03:13:06.434Z,31.00
2019-01-11T03:15:39.214Z,30.90
2019-01-11T03:18:13.387Z,30.80
2019-01-11T03:20:46.425Z,30.80
2019-01-11T03:23:19.586Z,30.80
2019-01-11T03:25:52.443Z,30.70
2019-01-11T03:28:25.195Z,30.70
2019-01-11T03:30:59.148Z,30.60
2019-01-11T03:33:32.381Z,30.70
2019-01-11T03:36:07.033Z,30.70
2019-01-11T03:38:40.753Z,30.60
2019-01-11T03:41:13.671Z,30.50
2019-01-11T03:43:46.810Z,30.50
2019-01-11T03:46:20.014Z,30.30
2019-01-11T03:48:52.951Z,30.20
2019-01-11T03:51:26.795Z,30.10
2019-01-11T03:54:00.423Z,30.10
2019-01-11T03:56:33.355Z,30.00
2019-01-11T03:59:06.434Z,30.00
2019-01-11T04:01:39.350Z,30.00
2019-01-11T04:04:13.168Z,30.10
2019-01-11T04:06:45.912Z,30.10
2019-01-11T04:09:19.182Z,30.20
2019-01-11T04:11:51.980Z,30.20
2019-01-11T04:14:24.990Z,30.10
2019-01-11T04:16:57.857Z,30.00
2019-01-11T04:19:30.973Z,30.00
2019-01-11T04:22:10.954Z,30.00
2019-01-11T04:24:45.032Z,30.00
2019-01-11T04:27:17.805Z,29.90
2019-01-11T04:29:50.865Z,29.90
2019-01-11T04:32:23.770Z,29.90
2019-01-11T04:34:57.045Z,30.00
2019-01-11T04:37:31.340Z,30.00
2019-01-11T04:40:04.433Z,30.00
2019-01-11T04:42:37.361Z,30.00
2019-01-11T04:45:11.402Z,29.90
2019-01-11T04:47:44.430Z,29.80
2019-01-11T04:50:20.040Z,29.70
2019-01-11T04:52:53.081Z,29.50
2019-01-11T04:55:25.993Z,29.30
2019-01-11T04:57:59.268Z,29.20
2019-01-11T05:00:32.156Z,29.10
2019-01-11T05:03:05.142Z,29.00
2019-01-11T05:05:39.152Z,29.00
2019-01-11T05:08:12.125Z,29.00
2019-01-11T05:10:44.921Z,28.90
2019-01-11T05:13:22.375Z,28.70
2019-01-11T05:15:55.206Z,28.70
2019-01-11T05:18:28.196Z,28.70
2019-01-11T05:21:02.313Z,28.70
2019-01-11T05:23:35.244Z,28.70
2019-01-11T05:26:08.162Z,28.60
2019-01-11T05:28:41.176Z,28.60
2019-01-11T05:31:13.934Z,28.50
2019-01-11T05:33:47.566Z,28.40
2019-01-11T05:36:20.189Z,28.30
2019-01-11T05:38:53.706Z,28.30
2019-01-11T05:41:26.489Z,28.40
2019-01-11T05:43:59.408Z,28.40
2019-01-11T05:46:32.256Z,28.40
2019-01-11T05:49:05.236Z,28.40
2019-01-11T05:51:38.236Z,28.30
2019-01-11T05:54:12.420Z,28.20
2019-01-11T05:56:45.309Z,28.20
2019-01-11T05:59:18.737Z,28.10
2019-01-11T06:01:51.621Z,28.00
2019-01-11T06:04:25.872Z,28.00
2019-01-11T06:07:05.848Z,28.00
2019-01-11T06:09:38.973Z,27.90
2019-01-11T06:12:11.948Z,27.90
2019-01-11T06:14:44.961Z,27.90
2019-01-11T06:17:17.942Z,27.90
2019-01-11T06:19:50.903Z,27.90
2019-01-11T06:22:23.731Z,27.90
2019-01-11T06:24:57.779Z,27.80
2019-01-11T06:27:30.720Z,27.80
2019-01-11T06:30:04.796Z,27.80
2019-01-11T06:32:37.730Z,27.70
2019-01-11T06:35:11.486Z,27.60
2019-01-11T06:37:44.266Z,27.50
2019-01-11T06:40:18.416Z,27.40
2019-01-11T06:42:51.278Z,27.30
2019-01-11T06:45:24.186Z,27.10
2019-01-11T06:47:57.551Z,27.00
2019-01-11T06:50:36.330Z,26.90
2019-01-11T06:53:04.449Z,26.90
2019-01-11T06:55:37.248Z,26.80
2019-01-11T06:58:10.680Z,26.70
2019-01-11T07:00:43.414Z,26.60
2019-01-11T07:03:16.066Z,26.50
2019-01-11T07:05:49.278Z,26.40
2019-01-11T07:08:22.173Z,26.30
2019-01-11T07:10:56.384Z,26.20
2019-01-11T07:13:29.587Z,26.10
2019-01-11T07:16:02.570Z,26.10
2019-01-11T07:18:35.456Z,25.90
2019-01-11T07:21:08.536Z,25.80
2019-01-11T07:23:41.318Z,25.80
2019-01-11T07:26:14.142Z,25.70
2019-01-11T07:28:47.278Z,25.60
2019-01-11T07:31:20.173Z,25.50
2019-01-11T07:33:54.169Z,25.50
2019-01-11T07:36:30.875Z,25.40
2019-01-11T07:39:04.502Z,25.40
2019-01-11T07:41:37.485Z,25.30
2019-01-11T07:44:10.971Z,25.30
2019-01-11T07:46:45.224Z,25.20
2019-01-11T07:49:23.159Z,25.20
2019-01-11T07:51:52.246Z,25.10
2019-01-11T07:54:25.277Z,25.10
2019-01-11T07:57:00.502Z,25.10
2019-01-11T07:59:33.586Z,25.00
2019-01-11T08:02:06.583Z,25.00
2019-01-11T08:04:39.786Z,24.90
2019-01-11T08:07:12.547Z,24.90
2019-01-11T08:09:45.711Z,24.90
2019-01-11T08:12:18.368Z,24.80
2019-01-11T08:14:51.407Z,24.80
2019-01-11T08:17:24.636Z,24.80
2019-01-11T08:19:57.676Z,24.70
2019-01-11T08:22:37.799Z,24.70
2019-01-11T08:25:10.925Z,24.60
2019-01-11T08:27:44.015Z,24.60
2019-01-11T08:30:21.185Z,24.60
2019-01-11T08:32:55.391Z,24.50
2019-01-11T08:35:29.122Z,24.50
2019-01-11T08:38:02.302Z,24.50
2019-01-11T08:40:36.230Z,24.50
2019-01-11T08:43:09.351Z,24.40
2019-01-11T08:45:42.168Z,24.40
2019-01-11T08:48:15.264Z,24.30
2019-01-11T08:50:48.898Z,24.30
2019-01-11T08:53:21.953Z,24.20
2019-01-11T08:55:55.256Z,24.20
2019-01-11T08:58:28.237Z,24.10
2019-01-11T09:01:01.056Z,24.10
2019-01-11T09:03:33.813Z,24.10
2019-01-11T09:06:06.588Z,24.00
2019-01-11T09:08:39.571Z,24.00
2019-01-11T09:11:12.375Z,24.00
2019-01-11T09:13:45.333Z,24.00
2019-01-11T09:16:20.796Z,23.90
2019-01-11T09:18:52.434Z,23.80
2019-01-11T09:21:25.330Z,23.80
2019-01-11T09:23:58.935Z,23.70
2019-01-11T09:26:31.710Z,23.70
2019-01-11T09:29:08.187Z,23.70
2019-01-11T09:31:42.315Z,23.70
2019-01-11T09:34:15.375Z,23.60
2019-01-11T09:36:48.355Z,23.60
2019-01-11T09:39:21.358Z,23.50
2019-01-11T09:41:54.260Z,23.50
2019-01-11T09:44:27.619Z,23.40
2019-01-11T09:47:00.593Z,23.40
2019-01-11T09:49:33.700Z,23.40
2019-01-11T09:52:06.577Z,23.30
2019-01-11T09:54:39.476Z,23.40
2019-01-11T09:57:12.456Z,23.40
2019-01-11T09:59:45.244Z,23.30
2019-01-11T10:02:36.159Z,23.30
2019-01-11T10:05:10.445Z,23.30
2019-01-11T10:10:14.814Z,23.30
2019-01-11T10:12:47.790Z,23.30
2019-01-11T10:15:20.540Z,23.30
2019-01-11T10:17:53.941Z,23.30
2019-01-11T10:20:26.874Z,23.20
2019-01-11T10:23:02.050Z,23.20
2019-01-11T10:25:34.979Z,23.10
2019-01-11T10:28:07.951Z,23.10
2019-01-11T10:30:40.944Z,23.10
2019-01-11T10:33:13.725Z,23.00
2019-01-11T10:35:46.408Z,23.00
2019-01-11T10:38:19.975Z,22.90
2019-01-11T10:40:52.923Z,22.80
2019-01-11T10:43:25.987Z,22.80
2019-01-11T10:46:02.452Z,22.70
2019-01-11T10:48:35.455Z,22.60
2019-01-11T10:51:08.512Z,22.60
2019-01-11T10:53:41.191Z,22.60
2019-01-11T10:56:14.211Z,22.60
2019-01-11T10:58:46.960Z,22.60
2019-01-11T11:01:20.080Z,22.50
2019-01-11T11:03:52.857Z,22.50
2019-01-11T11:06:25.828Z,22.40
2019-01-11T11:08:58.613Z,22.40
2019-01-11T11:11:31.592Z,22.30
2019-01-11T11:14:04.386Z,22.30
2019-01-11T11:16:37.222Z,22.20
2019-01-11T11:19:10.165Z,22.20
2019-01-11T11:21:42.996Z,22.20
2019-01-11T11:24:15.926Z,22.20
2019-01-11T11:26:48.907Z,22.20
2019-01-11T11:29:21.455Z,22.10
2019-01-11T11:31:54.278Z,22.10
2019-01-11T11:34:29.999Z,22.10
2019-01-11T11:37:03.966Z,22.10
2019-01-11T11:39:36.921Z,22.10
2019-01-11T11:42:09.899Z,22.00
2019-01-11T11:44:43.092Z,22.00
2019-01-11T11:47:16.067Z,22.00
2019-01-11T11:49:49.053Z,22.00
2019-01-11T11:52:21.840Z,22.00
2019-01-11T11:54:55.045Z,22.00
2019-01-11T11:57:27.819Z,21.90
2019-01-11T12:00:00.726Z,21.90
2019-01-11T12:02:33.766Z,21.90
2019-01-11T12:05:07.466Z,21.90
2019-01-11T12:07:40.534Z,21.80
2019-01-11T12:10:15.146Z,21.80
2019-01-11T12:12:48.175Z,21.80
2019-01-11T12:15:20.975Z,21.80
2019-01-11T12:17:53.976Z,21.80
2019-01-11T12:20:30.871Z,21.80
2019-01-11T12:23:04.036Z,21.80
2019-01-11T12:25:37.020Z,21.80
2019-01-11T12:28:09.998Z,21.70
2019-01-11T12:30:42.788Z,21.70
2019-01-11T12:33:16.484Z,21.70
2019-01-11T12:35:49.380Z,21.70
2019-01-11T12:38:21.936Z,21.70
2019-01-11T12:40:54.861Z,21.60
2019-01-11T12:43:27.850Z,21.60
2019-01-11T12:46:00.926Z,21.60
2019-01-11T12:48:33.817Z,21.60
2019-01-11T12:51:06.670Z,21.50
2019-01-11T12:53:39.743Z,21.50
2019-01-11T12:56:12.642Z,21.50
2019-01-11T12:58:45.559Z,21.40
2019-01-11T13:01:18.424Z,21.40
2019-01-11T13:03:51.445Z,21.40
2019-01-11T13:06:24.189Z,21.40
2019-01-11T13:08:57.161Z,21.40
2019-01-11T13:11:29.837Z,21.30
2019-01-11T13:14:02.734Z,21.30
2019-01-11T13:16:35.641Z,21.30
2019-01-11T13:19:08.498Z,21.20
2019-01-11T13:21:41.610Z,21.20
2019-01-11T13:24:14.479Z,21.20
2019-01-11T13:26:47.455Z,21.20
2019-01-11T13:29:20.236Z,21.10
2019-01-11T13:31:53.224Z,21.10
2019-01-11T13:34:26.013Z,21.10
2019-01-11T13:36:59.429Z,21.00
2019-01-11T13:39:32.393Z,21.00
2019-01-11T13:42:05.177Z,21.00
2019-01-11T13:44:39.177Z,20.90
2019-01-11T13:47:12.134Z,20.80
2019-01-11T13:49:45.157Z,20.80
2019-01-11T13:52:19.045Z,20.80
2019-01-11T13:54:52.093Z,20.80
2019-01-11T13:57:24.946Z,20.70
2019-01-11T13:59:58.120Z,20.70
2019-01-11T14:02:31.120Z,20.70
2019-01-11T14:05:04.253Z,20.60
2019-01-11T14:07:37.093Z,20.60
2019-01-11T14:10:10.052Z,20.60
2019-01-11T14:12:42.758Z,20.60
2019-01-11T14:15:15.887Z,20.60
2019-01-11T14:17:48.623Z,20.50
2019-01-11T14:20:21.472Z,20.50
2019-01-11T14:22:54.402Z,20.50
2019-01-11T14:25:27.311Z,20.50
2019-01-11T14:28:00.167Z,20.50
2019-01-11T14:30:33.270Z,20.40
2019-01-11T14:33:06.335Z,20.40
2019-01-11T14:35:39.315Z,20.40
2019-01-11T14:38:12.112Z,20.40
2019-01-11T14:40:44.892Z,20.40
2019-01-11T14:43:18.373Z,20.30
2019-01-11T14:45:51.286Z,20.30
2019-01-11T14:48:24.549Z,20.30
2019-01-11T14:50:57.338Z,20.30
2019-01-11T14:53:30.418Z,20.20
2019-01-11T14:56:03.234Z,20.20
2019-01-11T14:58:36.985Z,20.20
2019-01-11T15:01:09.820Z,20.20
2019-01-11T15:03:42.601Z,20.20
2019-01-11T15:06:15.822Z,20.20
2019-01-11T15:08:48.650Z,20.20
2019-01-11T15:11:21.910Z,20.10
2019-01-11T15:13:54.751Z,20.10
2019-01-11T15:16:28.066Z,20.10
2019-01-11T15:19:00.919Z,20.10
2019-01-11T15:21:33.896Z,20.00
2019-01-11T15:24:06.912Z,20.00
2019-01-11T15:26:39.881Z,20.00
2019-01-11T15:29:12.664Z,20.00
2019-01-11T15:31:45.645Z,20.00
2019-01-11T15:34:18.633Z,20.00
2019-01-11T15:36:51.573Z,20.00
2019-01-11T15:39:24.409Z,19.90
2019-01-11T15:41:57.509Z,19.90
2019-01-11T15:44:30.381Z,19.90
2019-01-11T15:47:03.964Z,19.90
2019-01-11T15:49:36.898Z,19.90
2019-01-11T15:52:10.114Z,19.90
2019-01-11T15:54:43.028Z,19.90
2019-01-11T15:57:16.119Z,19.90
2019-01-11T16:00:05.150Z,19.90
2019-01-11T16:02:38.067Z,19.80
2019-01-11T16:05:10.867Z,19.80
2019-01-11T16:07:44.043Z,19.80
2019-01-11T16:10:19.119Z,19.70
2019-01-11T16:12:52.063Z,19.70
2019-01-11T16:15:39.110Z,19.70
2019-01-11T16:18:23.532Z,19.70
2019-01-11T16:20:56.321Z,19.70
2019-01-11T16:23:29.486Z,19.60
2019-01-11T16:26:02.390Z,19.60
2019-01-11T16:28:35.384Z,19.60
2019-01-11T16:31:08.390Z,19.50
2019-01-11T16:33:41.343Z,19.50
2019-01-11T16:36:14.143Z,19.50
2019-01-11T16:38:46.919Z,19.50
2019-01-11T16:41:19.889Z,19.50
2019-01-11T16:43:52.888Z,19.50
2019-01-11T16:46:25.684Z,19.40
2019-01-11T16:48:59.152Z,19.40
2019-01-11T16:51:32.285Z,19.40
2019-01-11T16:54:05.442Z,19.40
2019-01-11T16:56:38.233Z,19.40
2019-01-11T16:59:11.405Z,19.40
2019-01-11T17:01:44.105Z,19.30
2019-01-11T17:04:17.285Z,19.20
2019-01-11T17:06:50.189Z,19.20
2019-01-11T17:09:23.176Z,19.10
2019-01-11T17:11:56.271Z,19.10
2019-01-11T17:14:29.342Z,19.00
2019-01-11T17:17:02.215Z,19.00
2019-01-11T17:19:35.298Z,19.00
2019-01-11T17:22:08.111Z,18.90
2019-01-11T17:24:41.044Z,18.90
2019-01-11T17:27:13.873Z,18.90
2019-01-11T17:29:47.580Z,18.80
2019-01-11T17:32:21.288Z,18.80
2019-01-11T17:34:54.414Z,18.70
2019-01-11T17:37:27.148Z,18.70
2019-01-11T17:40:00.244Z,18.70
2019-01-11T17:42:33.225Z,18.70
2019-01-11T17:45:06.291Z,18.70
2019-01-11T17:47:39.186Z,18.80
2019-01-11T17:50:17.254Z,18.70
2019-01-11T17:52:50.098Z,18.80
2019-01-11T17:55:23.205Z,18.80
2019-01-11T17:57:56.078Z,18.80
2019-01-11T18:00:30.470Z,18.80
2019-01-11T18:03:03.146Z,18.80
2019-01-11T18:05:36.210Z,18.80
2019-01-11T18:08:09.031Z,18.80
2019-01-11T18:10:42.055Z,18.80
2019-01-11T18:13:15.805Z,18.80
2019-01-11T18:15:48.996Z,18.80
2019-01-11T18:18:21.798Z,18.80
2019-01-11T18:20:54.444Z,18.90
2019-01-11T18:23:27.856Z,18.90
2019-01-11T18:26:00.748Z,19.00
2019-01-11T18:28:33.738Z,19.10
2019-01-11T18:31:06.528Z,19.10
2019-01-11T18:33:39.535Z,19.20
2019-01-11T18:36:12.487Z,19.30
2019-01-11T18:38:45.272Z,19.40
2019-01-11T18:41:18.274Z,19.50
2019-01-11T18:43:51.249Z,19.60
2019-01-11T18:46:24.233Z,19.70
2019-01-11T18:48:57.065Z,19.90
2019-01-11T18:51:29.997Z,20.00
2019-01-11T18:54:03.012Z,20.20
2019-01-11T18:56:35.732Z,20.30
2019-01-11T18:59:08.759Z,20.40
2019-01-11T19:01:41.678Z,20.50
2019-01-11T19:04:14.720Z,20.70
2019-01-11T19:06:47.508Z,20.80
2019-01-11T19:09:20.516Z,20.90
2019-01-11T19:11:53.284Z,21.10
2019-01-11T19:14:26.348Z,21.20
2019-01-11T19:16:59.249Z,21.30
2019-01-11T19:19:32.237Z,21.40
2019-01-11T19:22:04.993Z,21.50
2019-01-11T19:24:37.995Z,21.60
2019-01-11T19:27:11.191Z,21.70
2019-01-11T19:29:44.634Z,21.90
2019-01-11T19:32:17.257Z,22.00
2019-01-11T19:34:50.357Z,22.10
2019-01-11T19:37:23.148Z,22.20
2019-01-11T19:39:55.818Z,22.30
2019-01-11T19:42:28.901Z,22.40
2019-01-11T19:45:01.619Z,22.50
2019-01-11T19:47:34.490Z,22.60
2019-01-11T19:50:09.207Z,22.80
2019-01-11T19:52:42.304Z,22.90
2019-01-11T19:55:15.698Z,22.90
2019-01-11T19:57:48.672Z,23.10
2019-01-11T20:00:26.448Z,23.20
2019-01-11T20:02:59.583Z,23.30
2019-01-11T20:05:32.642Z,23.40
2019-01-11T20:08:05.537Z,23.50
2019-01-11T20:10:38.739Z,23.70
2019-01-11T20:13:11.524Z,23.80
2019-01-11T20:15:44.787Z,24.00
2019-01-11T20:18:17.692Z,24.10
2019-01-11T20:20:50.472Z,24.20
2019-01-11T20:23:23.452Z,24.30
2019-01-11T20:25:56.261Z,24.30
2019-01-11T20:28:29.433Z,24.40
2019-01-11T20:31:02.208Z,24.50
2019-01-11T20:33:36.025Z,24.60
2019-01-11T20:36:08.700Z,24.70
2019-01-11T20:38:41.579Z,24.80
2019-01-11T20:41:14.556Z,24.90
2019-01-11T20:43:47.773Z,25.00
2019-01-11T20:46:20.764Z,25.10
2019-01-11T20:48:53.522Z,25.10
2019-01-11T20:51:26.528Z,25.20
2019-01-11T20:53:59.643Z,25.30
2019-01-11T20:56:33.500Z,25.40
2019-01-11T20:59:06.604Z,25.60
2019-01-11T21:01:40.120Z,25.70
2019-01-11T21:04:12.759Z,25.80
2019-01-11T21:06:45.716Z,25.90
2019-01-11T21:09:19.765Z,26.00
2019-01-11T21:11:52.656Z,26.00
2019-01-11T21:14:25.562Z,26.00
2019-01-11T21:16:58.444Z,26.10
2019-01-11T21:19:31.413Z,26.20
2019-01-11T21:22:04.197Z,26.40
2019-01-11T21:24:37.348Z,26.50
2019-01-11T21:27:10.177Z,26.60
2019-01-11T21:29:42.952Z,26.60
2019-01-11T21:32:15.945Z,26.70
2019-01-11T21:34:48.920Z,26.80
2019-01-11T21:37:21.904Z,26.70
2019-01-11T21:39:54.793Z,26.70
2019-01-11T21:42:27.564Z,26.80
2019-01-11T21:45:00.810Z,27.00
2019-01-11T21:47:33.645Z,27.20
2019-01-11T21:50:07.962Z,27.30
2019-01-11T21:52:40.846Z,27.40
2019-01-11T21:55:14.519Z,27.50
2019-01-11T21:57:47.334Z,27.60
2019-01-11T22:00:37.289Z,27.60
2019-01-11T22:03:10.591Z,27.80
2019-01-11T22:05:43.713Z,27.90
2019-01-11T22:08:16.600Z,28.10
2019-01-11T22:10:49.569Z,28.20
2019-01-11T22:13:22.367Z,28.40
2019-01-11T22:15:55.354Z,28.50
2019-01-11T22:18:47.475Z,28.60
2019-01-11T22:21:21.176Z,28.60
2019-01-11T22:23:53.983Z,28.70
2019-01-11T22:26:26.828Z,28.70
2019-01-11T22:28:59.728Z,28.90
2019-01-11T22:31:32.712Z,29.00
2019-01-11T22:34:05.508Z,29.20
2019-01-11T22:36:38.540Z,29.20
2019-01-11T22:39:11.754Z,29.20
2019-01-11T22:41:44.739Z,29.20
2019-01-11T22:44:17.647Z,29.40
2019-01-11T22:46:50.636Z,29.60
2019-01-11T22:49:23.436Z,29.70
2019-01-11T22:51:56.388Z,29.90
2019-01-11T22:54:29.205Z,30.10
2019-01-11T22:57:02.185Z,30.30
2019-01-11T22:59:35.156Z,30.50
2019-01-11T23:02:09.651Z,30.70
2019-01-11T23:04:42.768Z,30.80
2019-01-11T23:07:17.550Z,31.10
2019-01-11T23:09:51.006Z,31.20
2019-01-11T23:12:31.309Z,31.40
2019-01-11T23:15:04.253Z,31.60
2019-01-11T23:17:38.937Z,31.90
2019-01-11T23:20:13.870Z,32.10
2019-01-11T23:22:47.001Z,32.20
2019-01-11T23:25:19.969Z,32.40
2019-01-11T23:27:52.778Z,32.70
2019-01-11T23:30:25.662Z,33.00
2019-01-11T23:32:58.550Z,33.10
2019-01-11T23:35:31.442Z,33.10
2019-01-11T23:38:04.522Z,33.10
2019-01-11T23:40:37.498Z,33.30
2019-01-11T23:43:10.551Z,33.50
2019-01-11T23:45:43.471Z,33.70
2019-01-11T23:48:16.516Z,33.80
2019-01-11T23:50:49.448Z,33.80
2019-01-11T23:53:22.360Z,34.00
2019-01-11T23:55:55.696Z,34.20
2019-01-11T23:58:28.480Z,34.20
